sensor_id;sensor_type;location;lat;lon;timestamp;P1;durP1;ratioP1;P2;durP2;ratioP2
817;SDS011;391;51.052;6.954;2023-01-08T00:00:35;531.47;;;267.60;;
817;SDS011;391;51.052;6.954;2023-01-08T00:02:38;532.80;;;267.27;;
817;SDS011;391;51.052;6.954;2023-01-08T00:04:42;518.75;;;249.75;;
817;SDS011;391;51.052;6.954;2023-01-08T00:06:45;520.00;;;247.85;;
817;SDS011;391;51.052;6.954;2023-01-08T00:08:49;527.83;;;260.10;;
817;SDS011;391;51.052;6.954;2023-01-08T00:10:52;520.45;;;260.05;;
817;SDS011;391;51.052;6.954;2023-01-08T00:12:58;522.72;;;252.60;;
817;SDS011;391;51.052;6.954;2023-01-08T00:15:01;527.40;;;250.40;;
817;SDS011;391;51.052;6.954;2023-01-08T00:17:05;522.00;;;248.73;;
817;SDS011;391;51.052;6.954;2023-01-08T00:19:09;524.58;;;261.92;;
817;SDS011;391;51.052;6.954;2023-01-08T00:21:13;525.47;;;266.15;;
817;SDS011;391;51.052;6.954;2023-01-08T00:23:18;529.85;;;260.17;;
817;SDS011;391;51.052;6.954;2023-01-08T00:25:22;524.42;;;248.38;;
817;SDS011;391;51.052;6.954;2023-01-08T00:27:25;531.38;;;263.50;;
817;SDS011;391;51.052;6.954;2023-01-08T00:29:30;527.58;;;269.00;;
817;SDS011;391;51.052;6.954;2023-01-08T00:31:33;534.00;;;276.90;;
817;SDS011;391;51.052;6.954;2023-01-08T00:33:37;519.88;;;248.73;;
817;SDS011;391;51.052;6.954;2023-01-08T00:35:41;527.90;;;255.82;;
817;SDS011;391;51.052;6.954;2023-01-08T00:37:47;518.10;;;244.20;;
817;SDS011;391;51.052;6.954;2023-01-08T00:39:51;523.80;;;261.20;;
817;SDS011;391;51.052;6.954;2023-01-08T00:41:54;520.60;;;255.55;;
817;SDS011;391;51.052;6.954;2023-01-08T00:43:57;521.67;;;241.85;;
817;SDS011;391;51.052;6.954;2023-01-08T00:46:02;518.08;;;234.00;;
817;SDS011;391;51.052;6.954;2023-01-08T00:48:06;520.72;;;245.00;;
817;SDS011;391;51.052;6.954;2023-01-08T00:50:09;525.83;;;252.73;;
817;SDS011;391;51.052;6.954;2023-01-08T00:52:13;529.63;;;259.90;;
817;SDS011;391;51.052;6.954;2023-01-08T00:54:16;522.80;;;257.92;;
817;SDS011;391;51.052;6.954;2023-01-08T00:56:20;520.42;;;244.70;;
817;SDS011;391;51.052;6.954;2023-01-08T00:58:23;523.20;;;249.85;;
817;SDS011;391;51.052;6.954;2023-01-08T01:00:26;530.63;;;270.73;;
817;SDS011;391;51.052;6.954;2023-01-08T01:02:31;527.10;;;251.30;;
817;SDS011;391;51.052;6.954;2023-01-08T01:04:36;523.20;;;256.55;;
817;SDS011;391;51.052;6.954;2023-01-08T01:06:40;525.03;;;250.90;;
817;SDS011;391;51.052;6.954;2023-01-08T01:08:43;524.05;;;247.48;;
817;SDS011;391;51.052;6.954;2023-01-08T01:10:46;526.53;;;262.73;;
817;SDS011;391;51.052;6.954;2023-01-08T01:12:50;516.88;;;246.00;;
817;SDS011;391;51.052;6.954;2023-01-08T01:14:53;528.08;;;264.10;;
817;SDS011;391;51.052;6.954;2023-01-08T01:16:57;526.58;;;260.02;;
817;SDS011;391;51.052;6.954;2023-01-08T01:19:01;527.50;;;257.33;;
817;SDS011;391;51.052;6.954;2023-01-08T01:21:08;518.85;;;245.40;;
817;SDS011;391;51.052;6.954;2023-01-08T01:23:12;523.58;;;241.90;;
817;SDS011;391;51.052;6.954;2023-01-08T01:25:16;522.78;;;250.77;;
817;SDS011;391;51.052;6.954;2023-01-08T01:27:19;529.22;;;260.50;;
817;SDS011;391;51.052;6.954;2023-01-08T01:29:23;530.03;;;263.05;;
817;SDS011;391;51.052;6.954;2023-01-08T01:31:31;528.35;;;261.92;;
817;SDS011;391;51.052;6.954;2023-01-08T01:33:36;525.63;;;261.45;;
817;SDS011;391;51.052;6.954;2023-01-08T01:35:40;533.70;;;274.45;;
817;SDS011;391;51.052;6.954;2023-01-08T01:37:44;528.50;;;257.63;;
817;SDS011;391;51.052;6.954;2023-01-08T01:39:47;525.15;;;253.95;;
817;SDS011;391;51.052;6.954;2023-01-08T01:41:50;525.45;;;258.77;;
817;SDS011;391;51.052;6.954;2023-01-08T01:43:54;526.47;;;274.15;;
817;SDS011;391;51.052;6.954;2023-01-08T01:45:58;528.63;;;266.88;;
817;SDS011;391;51.052;6.954;2023-01-08T01:48:03;528.83;;;277.75;;
817;SDS011;391;51.052;6.954;2023-01-08T01:50:12;528.30;;;260.25;;
817;SDS011;391;51.052;6.954;2023-01-08T01:52:21;528.13;;;261.13;;
817;SDS011;391;51.052;6.954;2023-01-08T01:54:26;529.13;;;261.70;;
817;SDS011;391;51.052;6.954;2023-01-08T01:56:30;524.33;;;273.80;;
817;SDS011;391;51.052;6.954;2023-01-08T01:58:35;527.40;;;252.52;;
817;SDS011;391;51.052;6.954;2023-01-08T02:00:39;525.45;;;248.77;;
817;SDS011;391;51.052;6.954;2023-01-08T02:02:44;520.85;;;241.45;;
817;SDS011;391;51.052;6.954;2023-01-08T02:04:48;527.35;;;268.67;;
817;SDS011;391;51.052;6.954;2023-01-08T02:06:54;522.75;;;253.82;;
817;SDS011;391;51.052;6.954;2023-01-08T02:09:08;525.35;;;269.38;;
817;SDS011;391;51.052;6.954;2023-01-08T02:11:21;527.83;;;267.35;;
817;SDS011;391;51.052;6.954;2023-01-08T02:13:28;530.70;;;260.05;;
817;SDS011;391;51.052;6.954;2023-01-08T02:15:37;540.92;;;272.73;;
817;SDS011;391;51.052;6.954;2023-01-08T02:17:51;522.00;;;257.10;;
817;SDS011;391;51.052;6.954;2023-01-08T02:20:01;525.47;;;252.57;;
817;SDS011;391;51.052;6.954;2023-01-08T02:22:13;528.17;;;258.92;;
817;SDS011;391;51.052;6.954;2023-01-08T02:24:28;524.10;;;240.00;;
817;SDS011;391;51.052;6.954;2023-01-08T02:26:46;525.33;;;262.52;;
817;SDS011;391;51.052;6.954;2023-01-08T02:28:51;521.38;;;246.10;;
817;SDS011;391;51.052;6.954;2023-01-08T02:30:57;527.33;;;258.63;;
817;SDS011;391;51.052;6.954;2023-01-08T02:33:00;528.28;;;270.10;;
817;SDS011;391;51.052;6.954;2023-01-08T02:35:04;526.25;;;254.88;;
817;SDS011;391;51.052;6.954;2023-01-08T02:37:09;523.88;;;243.93;;
817;SDS011;391;51.052;6.954;2023-01-08T02:39:20;529.75;;;266.35;;
817;SDS011;391;51.052;6.954;2023-01-08T02:41:32;530.72;;;259.35;;
817;SDS011;391;51.052;6.954;2023-01-08T02:43:45;524.47;;;248.18;;
817;SDS011;391;51.052;6.954;2023-01-08T02:45:53;522.85;;;255.05;;
817;SDS011;391;51.052;6.954;2023-01-08T02:48:01;525.95;;;257.48;;
817;SDS011;391;51.052;6.954;2023-01-08T02:50:14;522.55;;;242.50;;
817;SDS011;391;51.052;6.954;2023-01-08T02:52:24;526.55;;;254.77;;
817;SDS011;391;51.052;6.954;2023-01-08T02:54:31;524.00;;;245.77;;
817;SDS011;391;51.052;6.954;2023-01-08T02:56:37;521.67;;;238.68;;
817;SDS011;391;51.052;6.954;2023-01-08T02:58:45;530.97;;;257.10;;
817;SDS011;391;51.052;6.954;2023-01-08T03:00:51;521.35;;;245.52;;
817;SDS011;391;51.052;6.954;2023-01-08T03:03:00;523.47;;;241.15;;
817;SDS011;391;51.052;6.954;2023-01-08T03:05:12;526.03;;;251.68;;
817;SDS011;391;51.052;6.954;2023-01-08T03:07:21;532.88;;;253.63;;
817;SDS011;391;51.052;6.954;2023-01-08T03:09:24;526.30;;;249.45;;
817;SDS011;391;51.052;6.954;2023-01-08T03:11:28;525.08;;;254.75;;
817;SDS011;391;51.052;6.954;2023-01-08T03:13:39;527.10;;;253.63;;
817;SDS011;391;51.052;6.954;2023-01-08T03:15:51;523.78;;;251.85;;
817;SDS011;391;51.052;6.954;2023-01-08T03:17:59;531.65;;;259.80;;
817;SDS011;391;51.052;6.954;2023-01-08T03:20:07;520.25;;;237.13;;
817;SDS011;391;51.052;6.954;2023-01-08T03:22:15;525.08;;;250.57;;
817;SDS011;391;51.052;6.954;2023-01-08T03:24:27;520.25;;;241.82;;
817;SDS011;391;51.052;6.954;2023-01-08T03:26:34;524.95;;;253.43;;
817;SDS011;391;51.052;6.954;2023-01-08T03:28:41;520.80;;;245.45;;
817;SDS011;391;51.052;6.954;2023-01-08T03:30:49;521.15;;;245.15;;
817;SDS011;391;51.052;6.954;2023-01-08T03:32:56;518.10;;;240.45;;
817;SDS011;391;51.052;6.954;2023-01-08T03:35:02;526.38;;;255.32;;
817;SDS011;391;51.052;6.954;2023-01-08T03:37:11;523.03;;;247.40;;
817;SDS011;391;51.052;6.954;2023-01-08T03:39:17;527.40;;;250.85;;
817;SDS011;391;51.052;6.954;2023-01-08T03:41:28;528.58;;;254.85;;
817;SDS011;391;51.052;6.954;2023-01-08T03:43:34;531.80;;;248.20;;
817;SDS011;391;51.052;6.954;2023-01-08T03:45:38;536.78;;;271.50;;
817;SDS011;391;51.052;6.954;2023-01-08T03:47:48;531.80;;;252.65;;
817;SDS011;391;51.052;6.954;2023-01-08T03:49:52;520.88;;;244.77;;
817;SDS011;391;51.052;6.954;2023-01-08T03:51:57;527.05;;;251.02;;
817;SDS011;391;51.052;6.954;2023-01-08T03:54:01;515.80;;;238.20;;
817;SDS011;391;51.052;6.954;2023-01-08T03:56:05;530.38;;;260.60;;
817;SDS011;391;51.052;6.954;2023-01-08T03:58:09;528.60;;;248.80;;
817;SDS011;391;51.052;6.954;2023-01-08T04:00:12;518.88;;;247.75;;
817;SDS011;391;51.052;6.954;2023-01-08T04:02:17;521.30;;;248.00;;
817;SDS011;391;51.052;6.954;2023-01-08T04:04:22;532.25;;;259.42;;
817;SDS011;391;51.052;6.954;2023-01-08T04:06:25;529.22;;;252.77;;
817;SDS011;391;51.052;6.954;2023-01-08T04:08:29;531.42;;;257.00;;
817;SDS011;391;51.052;6.954;2023-01-08T04:10:32;519.63;;;243.82;;
817;SDS011;391;51.052;6.954;2023-01-08T04:12:35;523.08;;;236.85;;
817;SDS011;391;51.052;6.954;2023-01-08T04:14:39;527.67;;;247.27;;
817;SDS011;391;51.052;6.954;2023-01-08T04:16:42;527.65;;;256.42;;
817;SDS011;391;51.052;6.954;2023-01-08T04:18:45;522.65;;;242.20;;
817;SDS011;391;51.052;6.954;2023-01-08T04:20:50;522.17;;;245.00;;
817;SDS011;391;51.052;6.954;2023-01-08T04:22:54;525.53;;;243.15;;
817;SDS011;391;51.052;6.954;2023-01-08T04:24:57;520.58;;;244.77;;
817;SDS011;391;51.052;6.954;2023-01-08T04:27:00;530.88;;;248.05;;
817;SDS011;391;51.052;6.954;2023-01-08T04:29:04;519.65;;;242.75;;
817;SDS011;391;51.052;6.954;2023-01-08T04:31:07;521.00;;;241.95;;
817;SDS011;391;51.052;6.954;2023-01-08T04:33:11;518.67;;;237.38;;
817;SDS011;391;51.052;6.954;2023-01-08T04:35:15;517.88;;;239.88;;
817;SDS011;391;51.052;6.954;2023-01-08T04:37:20;526.75;;;239.27;;
817;SDS011;391;51.052;6.954;2023-01-08T04:39:23;534.80;;;268.02;;
817;SDS011;391;51.052;6.954;2023-01-08T04:41:27;524.85;;;250.45;;
817;SDS011;391;51.052;6.954;2023-01-08T04:43:30;522.17;;;241.20;;
817;SDS011;391;51.052;6.954;2023-01-08T04:45:34;528.97;;;255.00;;
817;SDS011;391;51.052;6.954;2023-01-08T04:47:37;524.03;;;243.38;;
817;SDS011;391;51.052;6.954;2023-01-08T04:49:41;526.28;;;249.98;;
817;SDS011;391;51.052;6.954;2023-01-08T04:51:44;527.67;;;248.50;;
817;SDS011;391;51.052;6.954;2023-01-08T04:53:49;519.88;;;230.02;;
817;SDS011;391;51.052;6.954;2023-01-08T04:55:52;519.95;;;246.60;;
817;SDS011;391;51.052;6.954;2023-01-08T04:57:56;523.08;;;241.93;;
817;SDS011;391;51.052;6.954;2023-01-08T04:59:59;521.05;;;250.10;;
817;SDS011;391;51.052;6.954;2023-01-08T05:02:02;518.92;;;245.57;;
817;SDS011;391;51.052;6.954;2023-01-08T05:04:06;526.38;;;255.93;;
817;SDS011;391;51.052;6.954;2023-01-08T05:06:09;516.70;;;241.85;;
817;SDS011;391;51.052;6.954;2023-01-08T05:08:13;519.83;;;230.25;;
817;SDS011;391;51.052;6.954;2023-01-08T05:10:17;518.13;;;240.75;;
817;SDS011;391;51.052;6.954;2023-01-08T05:12:21;517.88;;;226.45;;
817;SDS011;391;51.052;6.954;2023-01-08T05:14:24;526.65;;;246.57;;
817;SDS011;391;51.052;6.954;2023-01-08T05:16:27;514.63;;;224.32;;
817;SDS011;391;51.052;6.954;2023-01-08T05:18:31;519.70;;;247.48;;
817;SDS011;391;51.052;6.954;2023-01-08T05:20:34;527.30;;;252.05;;
817;SDS011;391;51.052;6.954;2023-01-08T05:22:37;525.88;;;252.20;;
817;SDS011;391;51.052;6.954;2023-01-08T05:24:41;518.83;;;240.95;;
817;SDS011;391;51.052;6.954;2023-01-08T05:26:45;521.13;;;246.20;;
817;SDS011;391;51.052;6.954;2023-01-08T05:28:49;519.40;;;249.68;;
817;SDS011;391;51.052;6.954;2023-01-08T05:30:54;521.58;;;247.90;;
817;SDS011;391;51.052;6.954;2023-01-08T05:32:57;523.63;;;256.70;;
817;SDS011;391;51.052;6.954;2023-01-08T05:35:01;523.42;;;256.00;;
817;SDS011;391;51.052;6.954;2023-01-08T05:37:04;519.65;;;249.32;;
817;SDS011;391;51.052;6.954;2023-01-08T05:39:07;512.70;;;236.00;;
817;SDS011;391;51.052;6.954;2023-01-08T05:41:11;522.20;;;252.05;;
817;SDS011;391;51.052;6.954;2023-01-08T05:43:15;510.98;;;225.60;;
817;SDS011;391;51.052;6.954;2023-01-08T05:45:19;525.92;;;257.85;;
817;SDS011;391;51.052;6.954;2023-01-08T05:47:22;519.70;;;240.57;;
817;SDS011;391;51.052;6.954;2023-01-08T05:49:26;513.28;;;230.48;;
817;SDS011;391;51.052;6.954;2023-01-08T05:51:29;524.95;;;251.32;;
817;SDS011;391;51.052;6.954;2023-01-08T05:53:32;523.13;;;247.88;;
817;SDS011;391;51.052;6.954;2023-01-08T05:55:36;529.75;;;251.73;;
817;SDS011;391;51.052;6.954;2023-01-08T05:57:39;527.50;;;259.98;;
817;SDS011;391;51.052;6.954;2023-01-08T05:59:44;517.92;;;245.93;;
817;SDS011;391;51.052;6.954;2023-01-08T06:01:47;516.03;;;232.43;;
817;SDS011;391;51.052;6.954;2023-01-08T06:03:53;518.33;;;242.05;;
817;SDS011;391;51.052;6.954;2023-01-08T06:05:57;515.08;;;235.77;;
817;SDS011;391;51.052;6.954;2023-01-08T06:08:01;524.17;;;252.65;;
817;SDS011;391;51.052;6.954;2023-01-08T06:10:05;514.70;;;241.82;;
817;SDS011;391;51.052;6.954;2023-01-08T06:12:09;522.92;;;248.10;;
817;SDS011;391;51.052;6.954;2023-01-08T06:14:13;523.75;;;247.30;;
817;SDS011;391;51.052;6.954;2023-01-08T06:16:18;522.80;;;245.25;;
817;SDS011;391;51.052;6.954;2023-01-08T06:18:23;522.03;;;242.90;;
817;SDS011;391;51.052;6.954;2023-01-08T06:20:26;519.20;;;242.15;;
817;SDS011;391;51.052;6.954;2023-01-08T06:22:29;526.80;;;265.52;;
817;SDS011;391;51.052;6.954;2023-01-08T06:24:34;518.95;;;242.85;;
817;SDS011;391;51.052;6.954;2023-01-08T06:26:37;528.92;;;269.33;;
817;SDS011;391;51.052;6.954;2023-01-08T06:28:41;520.28;;;242.63;;
817;SDS011;391;51.052;6.954;2023-01-08T06:30:44;520.08;;;246.55;;
817;SDS011;391;51.052;6.954;2023-01-08T06:32:49;520.33;;;258.92;;
817;SDS011;391;51.052;6.954;2023-01-08T06:34:57;514.38;;;236.75;;
817;SDS011;391;51.052;6.954;2023-01-08T06:37:01;520.95;;;252.32;;
817;SDS011;391;51.052;6.954;2023-01-08T06:39:04;533.92;;;258.90;;
817;SDS011;391;51.052;6.954;2023-01-08T06:41:08;519.03;;;245.32;;
817;SDS011;391;51.052;6.954;2023-01-08T06:43:12;521.03;;;249.98;;
817;SDS011;391;51.052;6.954;2023-01-08T06:45:16;523.03;;;249.85;;
817;SDS011;391;51.052;6.954;2023-01-08T06:47:20;518.90;;;241.00;;
817;SDS011;391;51.052;6.954;2023-01-08T06:49:25;523.00;;;244.45;;
817;SDS011;391;51.052;6.954;2023-01-08T06:51:28;521.85;;;242.63;;
817;SDS011;391;51.052;6.954;2023-01-08T06:53:31;519.60;;;242.63;;
817;SDS011;391;51.052;6.954;2023-01-08T06:55:35;531.50;;;276.27;;
817;SDS011;391;51.052;6.954;2023-01-08T06:57:39;522.83;;;243.40;;
817;SDS011;391;51.052;6.954;2023-01-08T06:59:43;519.47;;;246.32;;
817;SDS011;391;51.052;6.954;2023-01-08T07:01:46;521.05;;;245.93;;
817;SDS011;391;51.052;6.954;2023-01-08T07:03:50;525.42;;;245.55;;
817;SDS011;391;51.052;6.954;2023-01-08T07:05:55;522.67;;;241.15;;
817;SDS011;391;51.052;6.954;2023-01-08T07:07:58;525.47;;;243.63;;
817;SDS011;391;51.052;6.954;2023-01-08T07:10:02;514.72;;;225.68;;
817;SDS011;391;51.052;6.954;2023-01-08T07:12:06;513.85;;;224.45;;
817;SDS011;391;51.052;6.954;2023-01-08T07:14:13;518.30;;;230.57;;
817;SDS011;391;51.052;6.954;2023-01-08T07:16:16;517.72;;;221.68;;
817;SDS011;391;51.052;6.954;2023-01-08T07:18:20;523.05;;;243.10;;
817;SDS011;391;51.052;6.954;2023-01-08T07:20:23;530.38;;;249.18;;
817;SDS011;391;51.052;6.954;2023-01-08T07:22:28;538.63;;;245.18;;
817;SDS011;391;51.052;6.954;2023-01-08T07:24:31;526.67;;;230.70;;
817;SDS011;391;51.052;6.954;2023-01-08T07:26:35;532.78;;;236.02;;
817;SDS011;391;51.052;6.954;2023-01-08T07:28:40;520.90;;;234.05;;
817;SDS011;391;51.052;6.954;2023-01-08T07:30:44;527.40;;;239.52;;
817;SDS011;391;51.052;6.954;2023-01-08T07:32:47;525.60;;;224.38;;
817;SDS011;391;51.052;6.954;2023-01-08T07:34:51;527.10;;;253.55;;
817;SDS011;391;51.052;6.954;2023-01-08T07:36:55;510.67;;;217.07;;
817;SDS011;391;51.052;6.954;2023-01-08T07:39:00;518.63;;;233.85;;
817;SDS011;391;51.052;6.954;2023-01-08T07:41:03;520.40;;;226.80;;
817;SDS011;391;51.052;6.954;2023-01-08T07:43:07;503.95;;;207.70;;
817;SDS011;391;51.052;6.954;2023-01-08T07:45:13;520.08;;;226.13;;
817;SDS011;391;51.052;6.954;2023-01-08T07:47:17;520.33;;;236.75;;
817;SDS011;391;51.052;6.954;2023-01-08T07:49:20;521.63;;;232.88;;
817;SDS011;391;51.052;6.954;2023-01-08T07:51:23;519.05;;;231.23;;
817;SDS011;391;51.052;6.954;2023-01-08T07:53:27;518.38;;;223.35;;
817;SDS011;391;51.052;6.954;2023-01-08T07:55:32;518.95;;;221.60;;
817;SDS011;391;51.052;6.954;2023-01-08T07:57:35;512.05;;;212.27;;
817;SDS011;391;51.052;6.954;2023-01-08T07:59:38;517.78;;;229.88;;
817;SDS011;391;51.052;6.954;2023-01-08T08:01:42;515.67;;;230.05;;
817;SDS011;391;51.052;6.954;2023-01-08T08:03:45;523.25;;;237.77;;
817;SDS011;391;51.052;6.954;2023-01-08T08:05:48;517.80;;;227.63;;
817;SDS011;391;51.052;6.954;2023-01-08T08:07:52;519.78;;;226.35;;
817;SDS011;391;51.052;6.954;2023-01-08T08:09:55;517.35;;;231.07;;
817;SDS011;391;51.052;6.954;2023-01-08T08:12:00;513.08;;;224.20;;
817;SDS011;391;51.052;6.954;2023-01-08T08:14:04;515.65;;;232.98;;
817;SDS011;391;51.052;6.954;2023-01-08T08:16:08;526.58;;;232.30;;
817;SDS011;391;51.052;6.954;2023-01-08T08:18:11;516.88;;;223.52;;
817;SDS011;391;51.052;6.954;2023-01-08T08:20:14;510.15;;;215.05;;
817;SDS011;391;51.052;6.954;2023-01-08T08:22:18;517.97;;;227.18;;
817;SDS011;391;51.052;6.954;2023-01-08T08:24:21;531.53;;;235.75;;
817;SDS011;391;51.052;6.954;2023-01-08T08:26:25;518.80;;;222.55;;
817;SDS011;391;51.052;6.954;2023-01-08T08:28:29;515.60;;;226.10;;
817;SDS011;391;51.052;6.954;2023-01-08T08:30:33;515.65;;;231.32;;
817;SDS011;391;51.052;6.954;2023-01-08T08:32:37;522.03;;;233.13;;
817;SDS011;391;51.052;6.954;2023-01-08T08:34:41;522.90;;;243.45;;
817;SDS011;391;51.052;6.954;2023-01-08T08:36:44;517.97;;;226.50;;
817;SDS011;391;51.052;6.954;2023-01-08T08:38:47;518.58;;;235.32;;
817;SDS011;391;51.052;6.954;2023-01-08T08:40:51;516.75;;;229.10;;
817;SDS011;391;51.052;6.954;2023-01-08T08:42:55;515.72;;;227.68;;
817;SDS011;391;51.052;6.954;2023-01-08T08:45:00;517.67;;;237.48;;
817;SDS011;391;51.052;6.954;2023-01-08T08:47:05;526.63;;;231.82;;
817;SDS011;391;51.052;6.954;2023-01-08T08:49:09;514.65;;;228.38;;
817;SDS011;391;51.052;6.954;2023-01-08T08:51:12;517.13;;;216.15;;
817;SDS011;391;51.052;6.954;2023-01-08T08:53:17;512.97;;;216.18;;
817;SDS011;391;51.052;6.954;2023-01-08T08:55:20;523.53;;;238.90;;
817;SDS011;391;51.052;6.954;2023-01-08T08:57:24;520.00;;;232.63;;
817;SDS011;391;51.052;6.954;2023-01-08T08:59:28;529.63;;;256.45;;
817;SDS011;391;51.052;6.954;2023-01-08T09:01:33;516.28;;;214.13;;
817;SDS011;391;51.052;6.954;2023-01-08T09:03:37;524.47;;;226.13;;
817;SDS011;391;51.052;6.954;2023-01-08T09:05:40;527.78;;;230.18;;
817;SDS011;391;51.052;6.954;2023-01-08T09:07:44;517.17;;;215.10;;
817;SDS011;391;51.052;6.954;2023-01-08T09:09:48;524.58;;;229.95;;
817;SDS011;391;51.052;6.954;2023-01-08T09:11:51;529.20;;;244.18;;
817;SDS011;391;51.052;6.954;2023-01-08T09:13:55;512.80;;;213.93;;
817;SDS011;391;51.052;6.954;2023-01-08T09:15:58;517.30;;;224.73;;
817;SDS011;391;51.052;6.954;2023-01-08T09:18:03;518.25;;;233.63;;
817;SDS011;391;51.052;6.954;2023-01-08T09:20:08;513.92;;;222.55;;
817;SDS011;391;51.052;6.954;2023-01-08T09:22:11;512.63;;;222.48;;
817;SDS011;391;51.052;6.954;2023-01-08T09:24:15;516.10;;;227.40;;
817;SDS011;391;51.052;6.954;2023-01-08T09:26:18;516.30;;;222.15;;
817;SDS011;391;51.052;6.954;2023-01-08T09:28:22;517.10;;;223.73;;
817;SDS011;391;51.052;6.954;2023-01-08T09:30:25;521.88;;;223.82;;
817;SDS011;391;51.052;6.954;2023-01-08T09:32:29;513.53;;;209.88;;
817;SDS011;391;51.052;6.954;2023-01-08T09:34:34;514.80;;;209.40;;
817;SDS011;391;51.052;6.954;2023-01-08T09:36:38;515.35;;;215.25;;
817;SDS011;391;51.052;6.954;2023-01-08T09:38:41;517.83;;;221.43;;
817;SDS011;391;51.052;6.954;2023-01-08T09:40:47;520.35;;;230.70;;
817;SDS011;391;51.052;6.954;2023-01-08T09:42:56;520.60;;;232.18;;
817;SDS011;391;51.052;6.954;2023-01-08T09:45:02;519.65;;;236.43;;
817;SDS011;391;51.052;6.954;2023-01-08T09:47:19;518.88;;;230.82;;
817;SDS011;391;51.052;6.954;2023-01-08T09:49:29;522.92;;;229.98;;
817;SDS011;391;51.052;6.954;2023-01-08T09:51:41;520.25;;;232.50;;
817;SDS011;391;51.052;6.954;2023-01-08T09:53:46;519.80;;;229.15;;
817;SDS011;391;51.052;6.954;2023-01-08T09:55:55;523.25;;;232.40;;
817;SDS011;391;51.052;6.954;2023-01-08T09:58:12;524.85;;;239.15;;
817;SDS011;391;51.052;6.954;2023-01-08T10:00:25;545.83;;;257.42;;
817;SDS011;391;51.052;6.954;2023-01-08T10:02:31;532.35;;;239.35;;
817;SDS011;391;51.052;6.954;2023-01-08T10:04:38;525.83;;;245.63;;
817;SDS011;391;51.052;6.954;2023-01-08T10:06:45;527.00;;;249.98;;
817;SDS011;391;51.052;6.954;2023-01-08T10:08:52;538.78;;;263.42;;
817;SDS011;391;51.052;6.954;2023-01-08T10:10:56;526.65;;;254.90;;
817;SDS011;391;51.052;6.954;2023-01-08T10:12:59;530.63;;;254.38;;
817;SDS011;391;51.052;6.954;2023-01-08T10:15:03;545.55;;;269.05;;
817;SDS011;391;51.052;6.954;2023-01-08T10:17:11;538.15;;;263.70;;
817;SDS011;391;51.052;6.954;2023-01-08T10:19:23;544.22;;;283.23;;
817;SDS011;391;51.052;6.954;2023-01-08T10:21:29;543.38;;;265.83;;
817;SDS011;391;51.052;6.954;2023-01-08T10:23:34;540.10;;;258.70;;
817;SDS011;391;51.052;6.954;2023-01-08T10:25:48;544.13;;;266.25;;
817;SDS011;391;51.052;6.954;2023-01-08T10:27:55;548.40;;;267.88;;
817;SDS011;391;51.052;6.954;2023-01-08T10:30:03;547.95;;;281.65;;
817;SDS011;391;51.052;6.954;2023-01-08T10:32:08;546.15;;;270.45;;
817;SDS011;391;51.052;6.954;2023-01-08T10:34:26;554.42;;;274.05;;
817;SDS011;391;51.052;6.954;2023-01-08T10:36:36;543.03;;;248.70;;
817;SDS011;391;51.052;6.954;2023-01-08T10:38:47;540.50;;;266.67;;
817;SDS011;391;51.052;6.954;2023-01-08T10:40:52;542.78;;;292.40;;
817;SDS011;391;51.052;6.954;2023-01-08T10:43:03;539.85;;;265.33;;
817;SDS011;391;51.052;6.954;2023-01-08T10:45:10;551.58;;;279.42;;
817;SDS011;391;51.052;6.954;2023-01-08T10:47:20;544.63;;;270.95;;
817;SDS011;391;51.052;6.954;2023-01-08T10:49:26;547.35;;;292.45;;
817;SDS011;391;51.052;6.954;2023-01-08T10:51:35;539.80;;;271.92;;
817;SDS011;391;51.052;6.954;2023-01-08T10:53:39;540.42;;;273.45;;
817;SDS011;391;51.052;6.954;2023-01-08T10:55:43;542.20;;;271.05;;
817;SDS011;391;51.052;6.954;2023-01-08T10:57:51;545.83;;;293.88;;
817;SDS011;391;51.052;6.954;2023-01-08T10:59:57;550.97;;;279.02;;
817;SDS011;391;51.052;6.954;2023-01-08T11:02:00;551.05;;;284.70;;
817;SDS011;391;51.052;6.954;2023-01-08T11:04:05;555.30;;;289.77;;
817;SDS011;391;51.052;6.954;2023-01-08T11:06:09;546.03;;;274.00;;
817;SDS011;391;51.052;6.954;2023-01-08T11:08:16;546.53;;;271.52;;
817;SDS011;391;51.052;6.954;2023-01-08T11:10:24;553.05;;;278.10;;
817;SDS011;391;51.052;6.954;2023-01-08T11:12:33;552.53;;;302.40;;
817;SDS011;391;51.052;6.954;2023-01-08T11:14:37;554.13;;;303.38;;
817;SDS011;391;51.052;6.954;2023-01-08T11:16:41;547.65;;;281.98;;
817;SDS011;391;51.052;6.954;2023-01-08T11:18:45;543.00;;;283.25;;
817;SDS011;391;51.052;6.954;2023-01-08T11:20:52;549.53;;;289.70;;
817;SDS011;391;51.052;6.954;2023-01-08T11:23:02;542.85;;;278.58;;
817;SDS011;391;51.052;6.954;2023-01-08T11:25:10;552.35;;;291.42;;
817;SDS011;391;51.052;6.954;2023-01-08T11:27:17;553.17;;;310.42;;
817;SDS011;391;51.052;6.954;2023-01-08T11:29:29;551.13;;;291.77;;
817;SDS011;391;51.052;6.954;2023-01-08T11:31:40;562.75;;;328.38;;
817;SDS011;391;51.052;6.954;2023-01-08T11:33:48;551.92;;;300.33;;
817;SDS011;391;51.052;6.954;2023-01-08T11:35:59;561.67;;;312.80;;
817;SDS011;391;51.052;6.954;2023-01-08T11:38:10;552.35;;;298.45;;
817;SDS011;391;51.052;6.954;2023-01-08T11:40:16;561.92;;;296.42;;
817;SDS011;391;51.052;6.954;2023-01-08T11:42:32;548.95;;;298.95;;
817;SDS011;391;51.052;6.954;2023-01-08T11:44:52;550.90;;;279.00;;
817;SDS011;391;51.052;6.954;2023-01-08T11:47:11;545.40;;;271.63;;
817;SDS011;391;51.052;6.954;2023-01-08T11:49:25;551.10;;;270.70;;
817;SDS011;391;51.052;6.954;2023-01-08T11:51:42;548.47;;;255.55;;
817;SDS011;391;51.052;6.954;2023-01-08T11:54:00;544.80;;;266.13;;
817;SDS011;391;51.052;6.954;2023-01-08T11:56:19;543.58;;;267.80;;
817;SDS011;391;51.052;6.954;2023-01-08T11:58:37;546.67;;;261.90;;
817;SDS011;391;51.052;6.954;2023-01-08T12:01:09;541.60;;;269.80;;
817;SDS011;391;51.052;6.954;2023-01-08T12:03:25;540.45;;;265.15;;
817;SDS011;391;51.052;6.954;2023-01-08T12:05:33;550.22;;;287.45;;
817;SDS011;391;51.052;6.954;2023-01-08T12:07:46;540.05;;;258.02;;
817;SDS011;391;51.052;6.954;2023-01-08T12:09:55;539.90;;;257.45;;
817;SDS011;391;51.052;6.954;2023-01-08T12:12:10;535.47;;;262.23;;
817;SDS011;391;51.052;6.954;2023-01-08T12:14:25;538.47;;;266.00;;
817;SDS011;391;51.052;6.954;2023-01-08T12:16:43;541.47;;;268.92;;
817;SDS011;391;51.052;6.954;2023-01-08T12:18:57;527.83;;;245.25;;
817;SDS011;391;51.052;6.954;2023-01-08T12:21:13;535.25;;;263.88;;
817;SDS011;391;51.052;6.954;2023-01-08T12:23:25;533.22;;;256.80;;
817;SDS011;391;51.052;6.954;2023-01-08T12:28:23;531.00;;;246.73;;
817;SDS011;391;51.052;6.954;2023-01-08T12:30:40;542.45;;;266.52;;
817;SDS011;391;51.052;6.954;2023-01-08T12:32:54;544.15;;;271.23;;
817;SDS011;391;51.052;6.954;2023-01-08T12:35:02;534.08;;;249.93;;
817;SDS011;391;51.052;6.954;2023-01-08T12:37:12;536.65;;;254.65;;
817;SDS011;391;51.052;6.954;2023-01-08T12:39:20;549.08;;;273.63;;
817;SDS011;391;51.052;6.954;2023-01-08T12:41:29;554.15;;;268.05;;